Time;durP1;ratioP1;P1;durP2;ratioP2;P2;SDS_P1;SDS_P2;PMS_P1;PMS_P2;Temp;Humidity;BMP_temperature;BMP_pressure;BME280_temperature;BME280_humidity;BME280_pressure;Samples;Min_cycle;Max_cycle;Signal;HPM_P1;HPM_P2
2022/12/25 00:01:24;;;;;;;105.07;28.27;;;;;;;;;;5074245;28;20318;-87
2022/12/25 00:03:50;;;;;;;113.13;28.50;;;;;;;;;;5074062;28;20501;-82
2022/12/25 00:06:17;;;;;;;129.80;29.67;;;;;;;;;;5074118;28;20336;-87
2022/12/25 00:08:43;;;;;;;120.30;28.20;;;;;;;;;;5057343;28;20345;-87
2022/12/25 00:11:14;;;;;;;109.07;28.73;;;;;;;;;;5039908;28;20323;-87
2022/12/25 00:13:41;;;;;;;105.18;27.48;;;;;;;;;;5074069;28;20278;-87
2022/12/25 00:16:09;;;;;;;88.93;26.10;;;;;;;;;;5073883;28;20127;-86
2022/12/25 00:18:35;;;;;;;99.43;28.07;;;;;;;;;;5073910;28;20052;-87
2022/12/25 00:21:02;;;;;;;115.30;26.67;;;;;;;;;;5073894;28;20365;-87
2022/12/25 00:23:29;;;;;;;132.77;30.43;;;;;;;;;;5074086;28;20362;-87
2022/12/25 00:25:55;;;;;;;112.60;30.13;;;;;;;;;;5073821;28;20778;-86
2022/12/25 00:28:22;;;;;;;94.60;27.90;;;;;;;;;;5074328;28;20301;-87
2022/12/25 00:30:48;;;;;;;127.03;29.53;;;;;;;;;;5056661;28;20287;-87
2022/12/25 00:33:14;;;;;;;106.38;28.45;;;;;;;;;;5039400;28;20290;-87
2022/12/25 00:35:41;;;;;;;103.88;26.70;;;;;;;;;;5073661;28;20127;-87
2022/12/25 00:38:07;;;;;;;101.67;28.03;;;;;;;;;;5056280;28;20079;-86
2022/12/25 00:40:33;;;;;;;91.72;26.85;;;;;;;;;;5073684;28;20774;-86
2022/12/25 00:42:59;;;;;;;94.60;27.60;;;;;;;;;;5073716;28;20076;-86
2022/12/25 00:45:25;;;;;;;103.10;26.97;;;;;;;;;;5055985;28;20846;-87
2022/12/25 00:47:51;;;;;;;102.93;26.80;;;;;;;;;;5074308;28;20297;-86
2022/12/25 00:50:17;;;;;;;99.63;26.98;;;;;;;;;;5073561;28;20052;-86
2022/12/25 00:52:44;;;;;;;90.72;26.33;;;;;;;;;;5073252;28;20531;-87
2022/12/25 00:55:10;;;;;;;115.10;25.83;;;;;;;;;;5055289;28;20119;-86
2022/12/25 00:57:36;;;;;;;114.67;29.87;;;;;;;;;;5073532;28;20759;-87
2022/12/25 01:00:02;;;;;;;131.43;30.83;;;;;;;;;;5073969;28;20370;-87
2022/12/25 01:02:28;;;;;;;103.87;29.07;;;;;;;;;;5073486;28;20428;-86
2022/12/25 01:04:55;;;;;;;105.80;29.70;;;;;;;;;;5073387;28;20420;-86
2022/12/25 01:07:23;;;;;;;109.40;28.67;;;;;;;;;;5058433;28;20048;-87
2022/12/25 01:12:35;;;;;;;103.38;30.13;;;;;;;;;;5077616;28;20271;-86
2022/12/25 01:15:02;;;;;;;108.27;29.47;;;;;;;;;;5077380;28;20051;-86
2022/12/25 01:17:28;;;;;;;110.57;29.47;;;;;;;;;;5059767;28;20373;-87
2022/12/25 01:19:54;;;;;;;103.27;28.90;;;;;;;;;;5043169;28;20318;-86
2022/12/25 01:22:20;;;;;;;92.70;25.83;;;;;;;;;;5077849;28;20389;-86
2022/12/25 01:24:46;;;;;;;103.85;29.40;;;;;;;;;;5077766;28;20283;-86
2022/12/25 01:27:12;;;;;;;116.30;28.63;;;;;;;;;;5077212;28;20055;-86
2022/12/25 01:29:39;;;;;;;92.70;27.13;;;;;;;;;;5059338;28;20762;-86
2022/12/25 01:32:05;;;;;;;108.67;28.23;;;;;;;;;;5059372;28;20290;-86
2022/12/25 01:34:31;;;;;;;96.17;27.13;;;;;;;;;;5077065;28;20303;-88
2022/12/25 01:36:57;;;;;;;112.70;28.43;;;;;;;;;;5077829;28;20282;-88
2022/12/25 01:39:23;;;;;;;101.07;27.23;;;;;;;;;;5077795;28;20366;-87
2022/12/25 01:41:50;;;;;;;101.50;27.47;;;;;;;;;;5076886;28;20362;-87
2022/12/25 01:44:16;;;;;;;93.43;26.77;;;;;;;;;;5059740;28;20294;-87
2022/12/25 01:46:43;;;;;;;86.37;25.50;;;;;;;;;;5076831;28;20283;-87
2022/12/25 01:49:12;;;;;;;96.10;28.70;;;;;;;;;;5059179;28;20636;-86
2022/12/25 01:51:41;;;;;;;87.67;25.50;;;;;;;;;;5077660;28;20305;-87
2022/12/25 01:54:17;;;;;;;104.67;28.13;;;;;;;;;;5077098;28;20278;-86
2022/12/25 01:56:45;;;;;;;105.00;27.80;;;;;;;;;;5076689;28;20279;-87
2022/12/25 01:59:11;;;;;;;93.70;26.27;;;;;;;;;;5059170;28;20370;-86
2022/12/25 02:01:38;;;;;;;75.87;26.70;;;;;;;;;;5058932;28;20381;-87
2022/12/25 02:04:39;;;;;;;100.87;27.57;;;;;;;;;;5076818;28;20279;-86
2022/12/25 02:07:25;;;;;;;107.00;29.13;;;;;;;;;;4975904;28;20290;-83
2022/12/25 02:09:51;;;;;;;;;;;;;;;;;;5070886;28;20293;-86
2022/12/25 02:12:19;;;;;;;91.23;27.77;;;;;;;;;;5076668;28;19927;-87
2022/12/25 02:14:47;;;;;;;94.20;29.70;;;;;;;;;;5076508;28;20669;-85
2022/12/25 02:17:28;;;;;;;94.50;30.37;;;;;;;;;;5042870;28;20769;-83
2022/12/25 02:20:13;;;;;;;104.03;30.73;;;;;;;;;;5076137;28;20368;-82
2022/12/25 02:22:42;;;;;;;102.75;32.65;;;;;;;;;;5041929;28;20333;-83
2022/12/25 02:25:18;;;;;;;100.53;30.40;;;;;;;;;;5076105;28;20123;-83
2022/12/25 02:27:50;;;;;;;94.50;31.97;;;;;;;;;;5077036;28;20354;-83
2022/12/25 02:30:16;;;;;;;89.80;30.23;;;;;;;;;;5076369;28;20302;-83
2022/12/25 02:32:45;;;;;;;93.20;32.03;;;;;;;;;;5076034;28;20738;-83
2022/12/25 02:35:14;;;;;;;104.10;32.10;;;;;;;;;;5076484;28;20385;-82
2022/12/25 02:37:40;;;;;;;82.70;31.43;;;;;;;;;;5058063;28;20279;-82
2022/12/25 02:40:16;;;;;;;106.13;35.27;;;;;;;;;;5076695;28;20668;-82
2022/12/25 03:07:36;;;;;;;106.13;35.53;;;;;;;;;;5076234;28;20336;-83
2022/12/25 03:12:57;;;;;;;112.37;35.57;;;;;;;;;;5075928;28;20275;-84
2022/12/25 03:18:11;;;;;;;93.07;31.42;;;;;;;;;;5075792;28;20049;-85
2022/12/25 03:29:01;;;;;;;92.37;32.63;;;;;;;;;;5074999;28;20361;-86
2022/12/25 03:31:46;;;;;;;104.70;34.77;;;;;;;;;;5073913;28;20054;-86
2022/12/25 04:38:04;;;;;;;107.28;38.03;;;;;;;;;;5073838;28;20135;-87
2022/12/25 04:40:30;;;;;;;127.03;38.60;;;;;;;;;;5055815;28;20084;-87
2022/12/25 04:42:56;;;;;;;127.07;38.20;;;;;;;;;;5040055;28;20325;-88
2022/12/25 04:45:22;;;;;;;121.23;38.40;;;;;;;;;;5073715;28;20409;-88
2022/12/25 04:47:48;;;;;;;129.83;38.83;;;;;;;;;;5073554;28;20716;-88
2022/12/25 04:50:14;;;;;;;109.20;36.60;;;;;;;;;;5073948;28;20669;-88
2022/12/25 04:52:41;;;;;;;129.43;39.10;;;;;;;;;;5055704;28;20792;-87
2022/12/25 04:55:08;;;;;;;115.47;38.20;;;;;;;;;;5074068;28;20334;-88
2022/12/25 04:57:34;;;;;;;108.97;36.70;;;;;;;;;;5074302;28;20275;-88
2022/12/25 05:00:00;;;;;;;109.30;37.00;;;;;;;;;;5073172;28;20779;-88
2022/12/25 05:02:26;;;;;;;118.77;36.30;;;;;;;;;;5073505;28;20319;-88
2022/12/25 05:04:52;;;;;;;95.87;35.40;;;;;;;;;;5056059;28;20322;-89
2022/12/25 05:07:19;;;;;;;108.87;36.70;;;;;;;;;;5055674;28;20311;-88
2022/12/25 05:09:45;;;;;;;130.77;38.90;;;;;;;;;;5073441;28;20710;-89
2022/12/25 05:12:12;;;;;;;118.10;37.57;;;;;;;;;;5056537;28;20365;-89
2022/12/25 05:14:38;;;;;;;125.93;40.07;;;;;;;;;;5073061;28;20754;-88
2022/12/25 05:17:06;;;;;;;118.33;38.03;;;;;;;;;;5056460;28;20297;-89
2022/12/25 05:19:32;;;;;;;146.40;40.77;;;;;;;;;;5073327;28;20282;-88
2022/12/25 05:21:59;;;;;;;130.33;38.50;;;;;;;;;;5073281;28;20282;-88
2022/12/25 05:24:26;;;;;;;133.33;38.93;;;;;;;;;;5073262;28;20311;-89
2022/12/25 05:26:53;;;;;;;146.90;42.07;;;;;;;;;;5073542;28;20397;-89
2022/12/25 05:29:19;;;;;;;133.33;41.70;;;;;;;;;;5073286;28;20321;-89
2022/12/25 05:31:45;;;;;;;154.07;45.00;;;;;;;;;;5073195;28;20279;-89
2022/12/25 05:34:11;;;;;;;160.63;42.93;;;;;;;;;;5073334;28;20690;-89
2022/12/25 05:36:38;;;;;;;157.40;44.90;;;;;;;;;;5056164;28;20322;-89
2022/12/25 05:39:04;;;;;;;170.40;45.60;;;;;;;;;;5055498;28;20326;-89
2022/12/25 05:41:30;;;;;;;148.40;43.60;;;;;;;;;;5073418;28;20361;-89
2022/12/25 05:43:56;;;;;;;163.50;45.67;;;;;;;;;;5055171;28;20791;-89
2022/12/25 05:46:22;;;;;;;129.10;42.93;;;;;;;;;;5073080;28;20354;-88
2022/12/25 05:48:49;;;;;;;147.17;42.87;;;;;;;;;;5054992;28;20313;-89
2022/12/25 05:51:15;;;;;;;153.07;43.57;;;;;;;;;;5072863;28;20670;-89
2022/12/25 05:53:42;;;;;;;147.73;43.10;;;;;;;;;;5074518;28;20287;-89
2022/12/25 05:56:08;;;;;;;151.03;43.07;;;;;;;;;;5076657;28;20352;-88
2022/12/25 05:58:34;;;;;;;128.60;40.63;;;;;;;;;;5076665;28;20282;-88
2022/12/25 06:01:01;;;;;;;138.00;41.53;;;;;;;;;;5059013;28;20846;-88
2022/12/25 06:03:27;;;;;;;154.57;44.70;;;;;;;;;;5076620;28;20758;-88
2022/12/25 06:05:53;;;;;;;120.53;39.70;;;;;;;;;;5076571;28;20356;-88
2022/12/25 06:08:20;;;;;;;113.20;40.63;;;;;;;;;;5076505;28;20363;-89
2022/12/25 06:10:46;;;;;;;116.50;38.50;;;;;;;;;;5076437;28;20286;-88
2022/12/25 06:13:12;;;;;;;132.97;48.03;;;;;;;;;;5076445;28;20408;-88
2022/12/25 06:15:39;;;;;;;139.97;42.50;;;;;;;;;;5076294;28;20339;-87
2022/12/25 06:18:05;;;;;;;136.20;46.27;;;;;;;;;;5042811;28;20628;-88
2022/12/25 06:20:31;;;;;;;122.93;40.87;;;;;;;;;;5076326;28;20372;-88
2022/12/25 06:22:57;;;;;;;118.47;39.03;;;;;;;;;;5058529;28;20279;-88
2022/12/25 06:25:23;;;;;;;146.50;41.67;;;;;;;;;;5058481;28;20307;-89
2022/12/25 06:27:50;;;;;;;115.00;38.03;;;;;;;;;;5058782;28;20370;-88
2022/12/25 06:30:16;;;;;;;124.27;38.97;;;;;;;;;;5076907;28;20282;-89
2022/12/25 06:32:42;;;;;;;103.33;38.10;;;;;;;;;;5058479;28;20294;-88
2022/12/25 06:35:08;;;;;;;103.70;36.70;;;;;;;;;;5042482;28;20391;-88
2022/12/25 06:37:34;;;;;;;117.23;37.77;;;;;;;;;;5075782;28;20818;-89
2022/12/25 06:40:00;;;;;;;111.33;36.17;;;;;;;;;;5076576;28;20761;-88
2022/12/25 06:42:27;;;;;;;99.93;36.50;;;;;;;;;;5058052;28;20315;-88
2022/12/25 06:44:53;;;;;;;103.73;36.33;;;;;;;;;;5058197;28;20309;-88
2022/12/25 06:47:19;;;;;;;117.17;37.27;;;;;;;;;;5076252;28;20337;-89
2022/12/25 06:49:46;;;;;;;104.50;34.50;;;;;;;;;;5041271;28;20299;-88
2022/12/25 06:52:12;;;;;;;108.00;37.23;;;;;;;;;;5076066;28;20631;-88
2022/12/25 06:54:38;;;;;;;102.67;36.03;;;;;;;;;;5075650;28;20334;-89
2022/12/25 06:57:04;;;;;;;102.90;35.83;;;;;;;;;;5075929;28;20286;-89
2022/12/25 06:59:31;;;;;;;98.40;35.60;;;;;;;;;;5075603;28;20282;-89
2022/12/25 07:01:57;;;;;;;99.33;36.93;;;;;;;;;;5057654;28;20361;-88
2022/12/25 07:04:26;;;;;;;99.97;37.17;;;;;;;;;;5076166;28;20279;-88
2022/12/25 07:06:52;;;;;;;93.37;35.50;;;;;;;;;;5075428;28;20359;-88
2022/12/25 07:09:19;;;;;;;103.63;34.93;;;;;;;;;;5075441;28;20286;-86
2022/12/25 07:11:45;;;;;;;109.83;36.17;;;;;;;;;;5057724;28;20436;-87
2022/12/25 07:14:18;;;;;;;102.60;34.93;;;;;;;;;;5057438;28;20365;-88
2022/12/25 07:16:44;;;;;;;101.97;35.30;;;;;;;;;;5075216;28;20634;-82
2022/12/25 07:19:10;;;;;;;102.43;35.17;;;;;;;;;;5057486;28;20365;-89
2022/12/25 07:21:36;;;;;;;75.57;32.50;;;;;;;;;;5075717;28;20275;-89
2022/12/25 07:24:02;;;;;;;90.17;34.40;;;;;;;;;;5075024;28;20318;-89
2022/12/25 07:26:28;;;;;;;90.60;33.60;;;;;;;;;;5057404;28;20275;-89
2022/12/25 07:28:55;;;;;;;86.10;32.57;;;;;;;;;;5057652;28;20744;-88
2022/12/25 07:31:21;;;;;;;90.80;32.43;;;;;;;;;;5075811;28;20687;-89
2022/12/25 07:33:47;;;;;;;77.90;30.67;;;;;;;;;;5075511;28;20358;-87
2022/12/25 07:36:14;;;;;;;77.17;30.20;;;;;;;;;;5074792;28;20394;-88
2022/12/25 07:38:41;;;;;;;75.13;28.83;;;;;;;;;;5074814;28;20282;-89
2022/12/25 07:41:08;;;;;;;79.27;30.07;;;;;;;;;;5074694;28;20279;-89
2022/12/25 07:43:35;;;;;;;82.27;27.70;;;;;;;;;;5074790;28;20648;-89
2022/12/25 07:46:01;;;;;;;65.93;27.47;;;;;;;;;;5074359;28;20775;-88
2022/12/25 07:48:27;;;;;;;63.90;25.87;;;;;;;;;;5074947;28;20327;-88
2022/12/25 07:51:01;;;;;;;75.50;26.87;;;;;;;;;;5056768;28;20302;-88
2022/12/25 07:53:27;;;;;;;74.37;27.43;;;;;;;;;;5057089;28;20615;-89
2022/12/25 07:55:57;;;;;;;68.83;27.50;;;;;;;;;;5056591;28;20651;-88
2022/12/25 07:58:24;;;;;;;75.63;25.97;;;;;;;;;;5074431;28;20289;-88
2022/12/25 08:00:50;;;;;;;56.70;25.47;;;;;;;;;;5074099;28;20846;-81
2022/12/25 08:03:16;;;;;;;77.37;28.23;;;;;;;;;;5074366;28;20412;-89
2022/12/25 08:05:42;;;;;;;79.23;27.57;;;;;;;;;;5074270;28;20283;-89
2022/12/25 08:08:08;;;;;;;61.73;26.13;;;;;;;;;;5073925;28;20770;-88
2022/12/25 08:10:34;;;;;;;62.53;25.50;;;;;;;;;;5074730;28;20332;-88
2022/12/25 08:13:00;;;;;;;57.23;25.60;;;;;;;;;;5074691;28;20274;-87
2022/12/25 08:15:26;;;;;;;56.40;24.73;;;;;;;;;;5056751;28;20628;-83
2022/12/25 08:17:52;;;;;;;67.73;25.50;;;;;;;;;;5073566;28;20365;-83
2022/12/25 08:20:19;;;;;;;56.50;24.40;;;;;;;;;;5039810;28;20291;-86
2022/12/25 08:22:45;;;;;;;62.17;25.20;;;;;;;;;;5056323;28;20783;-85
2022/12/25 08:25:11;;;;;;;52.33;24.00;;;;;;;;;;5074374;28;20271;-86
2022/12/25 08:27:37;;;;;;;56.93;23.70;;;;;;;;;;5073901;28;20281;-82
2022/12/25 08:30:03;;;;;;;63.30;25.03;;;;;;;;;;5074107;28;20784;-82
2022/12/25 08:32:31;;;;;;;54.67;22.77;;;;;;;;;;5075269;28;20290;-82
2022/12/25 08:34:57;;;;;;;57.03;24.07;;;;;;;;;;5056093;28;20703;-82
2022/12/25 08:37:23;;;;;;;53.83;23.63;;;;;;;;;;5056142;28;20370;-83
2022/12/25 08:39:49;;;;;;;64.07;24.97;;;;;;;;;;5039494;28;20385;-82
2022/12/25 08:42:15;;;;;;;61.70;23.23;;;;;;;;;;5073897;28;20310;-82
2022/12/25 08:44:41;;;;;;;47.80;21.93;;;;;;;;;;5056050;28;20295;-83
2022/12/25 08:47:08;;;;;;;40.53;20.60;;;;;;;;;;5073504;28;20314;-82
2022/12/25 08:49:34;;;;;;;38.23;20.37;;;;;;;;;;5074204;28;20286;-82
2022/12/25 08:52:00;;;;;;;50.93;20.10;;;;;;;;;;5073577;28;20322;-81
2022/12/25 08:54:26;;;;;;;51.73;20.37;;;;;;;;;;5039424;28;20329;-84
2022/12/25 08:56:53;;;;;;;53.20;19.30;;;;;;;;;;5073589;28;20370;-80
2022/12/25 08:59:19;;;;;;;49.23;24.10;;;;;;;;;;5074045;28;20615;-82
2022/12/25 09:01:45;;;;;;;53.10;27.07;;;;;;;;;;5073228;28;20817;-82
2022/12/25 09:04:11;;;;;;;40.63;20.20;;;;;;;;;;5039116;28;20370;-82
2022/12/25 09:06:37;;;;;;;45.23;20.17;;;;;;;;;;5073972;28;20314;-82
2022/12/25 09:09:03;;;;;;;39.47;17.87;;;;;;;;;;5073392;28;20316;-81
2022/12/25 09:11:29;;;;;;;36.37;17.47;;;;;;;;;;5073975;28;20336;-82
2022/12/25 09:13:55;;;;;;;37.87;17.83;;;;;;;;;;5055631;28;20432;-83
2022/12/25 09:16:22;;;;;;;41.40;18.27;;;;;;;;;;5073199;28;20313;-83
2022/12/25 09:18:49;;;;;;;37.93;17.37;;;;;;;;;;5073285;28;20279;-83
2022/12/25 09:21:15;;;;;;;35.77;16.77;;;;;;;;;;5073225;28;20283;-81
2022/12/25 09:23:42;;;;;;;31.17;16.43;;;;;;;;;;5073766;28;20290;-82
2022/12/25 09:26:10;;;;;;;38.23;18.17;;;;;;;;;;5072963;28;20287;-81
2022/12/25 09:28:36;;;;;;;41.13;18.40;;;;;;;;;;5056297;28;20290;-82
2022/12/25 09:31:03;;;;;;;40.30;19.37;;;;;;;;;;5059836;28;20289;-81
2022/12/25 09:33:29;;;;;;;38.93;18.77;;;;;;;;;;5077814;28;20293;-81
2022/12/25 09:35:56;;;;;;;31.23;16.43;;;;;;;;;;5077237;28;20775;-82
2022/12/25 09:38:23;;;;;;;35.57;17.00;;;;;;;;;;5059075;28;20295;-81
2022/12/25 09:40:57;;;;;;;30.70;15.63;;;;;;;;;;5059672;28;20290;-83
2022/12/25 09:43:24;;;;;;;36.20;17.53;;;;;;;;;;5059587;28;20297;-86
2022/12/25 09:45:50;;;;;;;30.90;16.50;;;;;;;;;;5042598;28;20382;-79
2022/12/25 09:48:17;;;;;;;32.70;16.80;;;;;;;;;;5077068;28;20365;-81
2022/12/25 09:50:47;;;;;;;40.20;16.90;;;;;;;;;;5077391;28;20338;-82
2022/12/25 09:53:24;;;;;;;36.07;17.77;;;;;;;;;;5061486;28;20373;-85
2022/12/25 09:55:56;;;;;;;35.57;17.23;;;;;;;;;;5058893;28;20402;-83
2022/12/25 09:58:24;;;;;;;31.63;16.67;;;;;;;;;;5076398;28;20793;-83
2022/12/25 10:00:59;;;;;;;30.47;16.47;;;;;;;;;;5076961;28;20297;-82
2022/12/25 10:03:44;;;;;;;27.92;14.98;;;;;;;;;;5059250;28;20626;-83
2022/12/25 10:06:21;;;;;;;32.83;16.05;;;;;;;;;;5076560;28;20041;-83
2022/12/25 10:08:56;;;;;;;35.17;19.43;;;;;;;;;;5076474;28;20094;-84
2022/12/25 10:11:41;;;;;;;30.10;14.95;;;;;;;;;;5059388;28;20295;-84
2022/12/25 10:14:10;;;;;;;29.23;15.25;;;;;;;;;;5076938;28;20040;-82
2022/12/25 10:16:39;;;;;;;31.30;15.03;;;;;;;;;;5076218;28;20055;-82
2022/12/25 10:19:26;;;;;;;33.53;14.90;;;;;;;;;;5076218;28;20373;-84
2022/12/25 10:21:55;;;;;;;32.40;16.27;;;;;;;;;;5076284;28;20279;-85
2022/12/25 10:24:34;;;;;;;31.67;15.70;;;;;;;;;;5076162;28;20297;-85
2022/12/25 10:27:02;;;;;;;28.87;14.67;;;;;;;;;;5076222;28;20290;-87
2022/12/25 10:29:30;;;;;;;25.07;14.10;;;;;;;;;;5076909;28;20282;-86
2022/12/25 10:31:56;;;;;;;21.63;12.47;;;;;;;;;;5076402;28;20290;-86
2022/12/25 10:34:23;;;;;;;28.43;13.57;;;;;;;;;;5076294;28;20286;-86
2022/12/25 10:36:50;;;;;;;23.83;13.73;;;;;;;;;;5076019;28;20287;-87
2022/12/25 10:39:20;;;;;;;23.60;12.60;;;;;;;;;;5075719;28;20747;-88
2022/12/25 10:42:05;;;;;;;22.77;13.40;;;;;;;;;;5076222;28;20286;-87
2022/12/25 10:44:32;;;;;;;23.83;11.93;;;;;;;;;;5058991;28;20662;-87
2022/12/25 10:46:59;;;;;;;19.90;12.40;;;;;;;;;;5075598;28;20321;-86
2022/12/25 10:49:36;;;;;;;20.73;12.53;;;;;;;;;;5057566;28;20363;-84
2022/12/25 10:52:03;;;;;;;22.93;12.50;;;;;;;;;;5076345;28;20337;-84
2022/12/25 10:54:36;;;;;;;21.73;12.30;;;;;;;;;;5075655;28;20282;-85
2022/12/25 10:57:22;;;;;;;21.97;12.30;;;;;;;;;;5058771;28;20287;-84
2022/12/25 10:59:51;;;;;;;22.10;11.73;;;;;;;;;;5041070;28;20763;-86
2022/12/25 11:02:35;;;;;;;20.00;11.27;;;;;;;;;;5075403;28;20275;-85
2022/12/25 11:05:03;;;;;;;18.40;10.77;;;;;;;;;;5058025;28;20287;-84
2022/12/25 11:07:30;;;;;;;19.97;11.27;;;;;;;;;;5075451;28;20344;-88
2022/12/25 11:09:58;;;;;;;19.07;11.57;;;;;;;;;;5057452;28;20340;-84
2022/12/25 11:12:32;;;;;;;22.13;11.13;;;;;;;;;;5076155;28;20287;-88
2022/12/25 11:15:00;;;;;;;17.47;10.57;;;;;;;;;;5075888;28;20303;-85
2022/12/25 11:17:27;;;;;;;18.53;11.47;;;;;;;;;;5075207;28;20290;-86
2022/12/25 11:20:02;;;;;;;19.13;12.47;;;;;;;;;;5075324;28;20287;-84
2022/12/25 11:22:28;;;;;;;23.15;13.00;;;;;;;;;;5075242;28;20278;-86
2022/12/25 11:24:54;;;;;;;19.67;12.40;;;;;;;;;;5057386;28;20045;-87
2022/12/25 11:27:26;;;;;;;17.53;11.33;;;;;;;;;;5074972;28;20286;-84
2022/12/25 11:29:57;;;;;;;25.10;12.50;;;;;;;;;;5075095;28;20278;-81
2022/12/25 11:32:31;;;;;;;20.57;12.07;;;;;;;;;;5074981;28;20281;-81
2022/12/25 11:34:58;;;;;;;19.23;11.63;;;;;;;;;;5074598;28;20813;-86
2022/12/25 11:37:43;;;;;;;18.97;11.00;;;;;;;;;;5056791;28;20326;-81
2022/12/25 11:40:29;;;;;;;21.90;13.43;;;;;;;;;;5074855;28;20319;-87
2022/12/25 11:43:03;;;;;;;17.63;10.53;;;;;;;;;;5057841;28;20095;-86
2022/12/25 11:45:32;;;;;;;17.43;10.50;;;;;;;;;;5057439;28;20307;-82
2022/12/25 11:48:02;;;;;;;21.93;11.83;;;;;;;;;;5074250;28;20386;-83
2022/12/25 11:50:30;;;;;;;17.80;10.10;;;;;;;;;;5074237;28;20287;-85
2022/12/25 11:52:58;;;;;;;20.33;10.23;;;;;;;;;;5074022;28;20286;-84
2022/12/25 11:55:31;;;;;;;23.60;10.77;;;;;;;;;;5075219;28;20386;-83
2022/12/25 11:58:00;;;;;;;19.00;10.33;;;;;;;;;;5075311;28;20279;-84
2022/12/25 12:00:28;;;;;;;19.70;10.57;;;;;;;;;;5056544;28;20314;-83
2022/12/25 12:02:57;;;;;;;19.03;10.07;;;;;;;;;;5074389;28;20375;-83
2022/12/25 12:05:50;;;;;;;20.77;10.83;;;;;;;;;;5057048;28;20278;-83
2022/12/25 12:08:16;;;;;;;20.77;10.70;;;;;;;;;;5051998;28;20677;-84
2022/12/25 12:10:50;;;;;;;20.53;11.00;;;;;;;;;;5056631;28;20347;-84
2022/12/25 12:13:26;;;;;;;19.77;11.27;;;;;;;;;;5056557;28;20366;-83
2022/12/25 12:15:52;;;;;;;21.90;11.43;;;;;;;;;;5073718;28;20779;-85
2022/12/25 12:18:18;;;;;;;24.53;11.47;;;;;;;;;;5074116;28;20357;-84
2022/12/25 12:20:45;;;;;;;19.97;11.53;;;;;;;;;;5074081;28;20364;-83
2022/12/25 12:23:15;;;;;;;31.87;21.50;;;;;;;;;;5073926;28;20287;-86
2022/12/25 12:25:42;;;;;;;27.70;13.73;;;;;;;;;;5073954;28;20290;-86
2022/12/25 12:28:13;;;;;;;22.63;13.00;;;;;;;;;;5073943;28;20283;-84
2022/12/25 12:30:39;;;;;;;21.20;11.27;;;;;;;;;;5056215;28;20373;-83
2022/12/25 12:33:07;;;;;;;24.73;12.77;;;;;;;;;;5073841;28;20314;-83
2022/12/25 12:35:34;;;;;;;22.03;11.30;;;;;;;;;;5055753;28;20314;-82
2022/12/25 12:38:06;;;;;;;26.73;14.37;;;;;;;;;;5039355;28;20386;-82
2022/12/25 12:40:35;;;;;;;25.40;15.20;;;;;;;;;;5073757;28;20286;-84
2022/12/25 12:43:01;;;;;;;25.67;16.13;;;;;;;;;;5056111;28;20330;-83
2022/12/25 12:45:30;;;;;;;31.00;16.53;;;;;;;;;;5056812;28;20294;-85
2022/12/25 12:47:57;;;;;;;24.70;13.77;;;;;;;;;;5055342;28;20295;-84
2022/12/25 12:50:26;;;;;;;25.50;13.50;;;;;;;;;;5073705;28;20281;-85
2022/12/25 12:52:52;;;;;;;21.63;12.80;;;;;;;;;;5074148;28;20293;-85
2022/12/25 12:55:27;;;;;;;32.33;18.17;;;;;;;;;;5073520;28;20306;-84
2022/12/25 12:57:57;;;;;;;28.70;16.35;;;;;;;;;;5073590;28;20321;-86
2022/12/25 13:00:24;;;;;;;24.00;15.13;;;;;;;;;;5074377;28;20045;-85
2022/12/25 13:03:04;;;;;;;31.57;19.00;;;;;;;;;;5073305;28;20318;-83
2022/12/25 13:05:41;;;;;;;26.67;15.93;;;;;;;;;;5055720;28;20326;-84
2022/12/25 13:08:26;;;;;;;25.43;14.33;;;;;;;;;;5055806;28;20292;-84
2022/12/25 13:11:03;;;;;;;56.75;34.78;;;;;;;;;;5073407;28;20361;-83
2022/12/25 13:13:34;;;;;;;30.17;18.77;;;;;;;;;;5055792;28;20515;-84
2022/12/25 13:16:00;;;;;;;34.80;18.70;;;;;;;;;;5073389;28;20348;-86
2022/12/25 13:18:27;;;;;;;36.97;21.43;;;;;;;;;;5055620;28;20283;-84
2022/12/25 13:20:54;;;;;;;45.27;25.63;;;;;;;;;;5073257;28;20322;-86
2022/12/25 13:23:26;;;;;;;49.97;28.83;;;;;;;;;;5073185;28;20365;-86
2022/12/25 13:25:53;;;;;;;72.20;40.07;;;;;;;;;;5056232;28;20338;-83
2022/12/25 13:28:24;;;;;;;42.87;27.40;;;;;;;;;;5073180;28;20287;-84
2022/12/25 13:30:50;;;;;;;46.33;25.97;;;;;;;;;;5056275;28;20326;-86
2022/12/25 13:33:19;;;;;;;30.63;17.97;;;;;;;;;;5055261;28;20294;-86
2022/12/25 13:35:45;;;;;;;50.90;27.53;;;;;;;;;;5072724;28;20797;-86
2022/12/25 13:38:17;;;;;;;43.50;25.53;;;;;;;;;;5055379;28;20314;-80
2022/12/25 13:43:40;;;;;;;34.72;23.88;;;;;;;;;;5073701;28;20275;-85
2022/12/25 13:46:06;;;;;;;31.40;19.73;;;;;;;;;;5073035;28;20154;-86
2022/12/25 13:48:32;;;;;;;31.37;17.90;;;;;;;;;;5072754;28;20364;-84
2022/12/25 13:50:59;;;;;;;24.13;17.73;;;;;;;;;;5073353;28;20282;-85
2022/12/25 13:53:26;;;;;;;27.77;19.90;;;;;;;;;;5073050;28;20291;-85
2022/12/25 13:55:53;;;;;;;27.00;15.77;;;;;;;;;;5055049;28;20326;-87
2022/12/25 13:58:24;;;;;;;45.77;31.27;;;;;;;;;;5073023;28;20282;-87
2022/12/25 14:00:51;;;;;;;41.47;27.50;;;;;;;;;;5073557;28;20417;-85
2022/12/25 14:03:28;;;;;;;41.57;26.93;;;;;;;;;;5073015;28;20340;-86
2022/12/25 14:05:56;;;;;;;47.53;30.73;;;;;;;;;;5038753;28;20310;-87
2022/12/25 14:08:23;;;;;;;22.27;14.83;;;;;;;;;;5055481;28;20279;-87
2022/12/25 14:10:50;;;;;;;24.23;13.13;;;;;;;;;;5054531;28;20774;-86
2022/12/25 14:13:17;;;;;;;17.50;11.33;;;;;;;;;;5073744;28;20310;-87
2022/12/25 14:15:46;;;;;;;21.57;12.90;;;;;;;;;;5057503;28;20305;-86
2022/12/25 14:18:17;;;;;;;26.63;15.00;;;;;;;;;;5025801;28;20291;-88
2022/12/25 14:21:02;;;;;;;28.90;25.67;;;;;;;;;;5076425;28;20366;-85
2022/12/25 14:23:33;;;;;;;18.52;11.40;;;;;;;;;;5058497;28;20282;-87
2022/12/25 14:26:00;;;;;;;18.83;12.53;;;;;;;;;;5042086;28;20091;-86
2022/12/25 14:28:31;;;;;;;24.50;13.00;;;;;;;;;;5076368;28;20275;-86
2022/12/25 14:31:01;;;;;;;19.33;11.43;;;;;;;;;;5041978;28;20293;-83
2022/12/25 14:33:28;;;;;;;16.93;10.50;;;;;;;;;;5041975;28;20615;-85
2022/12/25 14:35:54;;;;;;;18.10;10.87;;;;;;;;;;5041454;28;20302;-87
2022/12/25 14:38:25;;;;;;;18.10;10.97;;;;;;;;;;5076095;28;20354;-85
2022/12/25 14:40:59;;;;;;;18.23;11.80;;;;;;;;;;5058228;28;20310;-83
2022/12/25 14:43:28;;;;;;;20.40;12.07;;;;;;;;;;5041695;28;20279;-86
2022/12/25 14:45:55;;;;;;;20.57;12.80;;;;;;;;;;5041473;28;20336;-86
2022/12/25 14:48:22;;;;;;;20.73;12.77;;;;;;;;;;5075431;28;20286;-86
2022/12/25 14:50:58;;;;;;;24.70;13.37;;;;;;;;;;5041662;28;20297;-83
2022/12/25 14:53:28;;;;;;;27.27;14.57;;;;;;;;;;5041074;28;20704;-79
2022/12/25 14:55:55;;;;;;;24.80;14.23;;;;;;;;;;5058468;28;20307;-81
2022/12/25 14:58:22;;;;;;;23.10;12.93;;;;;;;;;;5075557;28;20318;-80
2022/12/25 15:00:56;;;;;;;25.27;14.73;;;;;;;;;;5057766;28;20317;-80
2022/12/25 15:03:34;;;;;;;26.63;15.07;;;;;;;;;;5057637;28;20678;-80
2022/12/25 15:06:20;;;;;;;18.57;13.17;;;;;;;;;;5041520;28;20319;-79
2022/12/25 15:09:17;;;;;;;24.08;13.23;;;;;;;;;;5041096;28;20279;-79
2022/12/25 15:11:47;;;;;;;25.20;15.50;;;;;;;;;;5055137;28;20056;-81
2022/12/25 15:14:13;;;;;;;92.37;67.67;;;;;;;;;;5057376;28;20366;-84
2022/12/25 15:16:41;;;;;;;41.10;28.00;;;;;;;;;;5023863;28;20302;-85
2022/12/25 15:19:08;;;;;;;29.20;17.73;;;;;;;;;;5075178;28;20274;-84
2022/12/25 15:21:35;;;;;;;27.33;16.67;;;;;;;;;;5075054;28;20313;-87
2022/12/25 15:24:02;;;;;;;29.53;19.30;;;;;;;;;;5057332;28;20374;-85
2022/12/25 15:26:29;;;;;;;29.00;17.87;;;;;;;;;;5057018;28;20325;-82
2022/12/25 15:28:55;;;;;;;35.97;19.23;;;;;;;;;;5075369;28;20368;-85
2022/12/25 15:31:39;;;;;;;27.13;16.70;;;;;;;;;;5040860;28;20314;-80
2022/12/25 15:34:18;;;;;;;34.83;18.70;;;;;;;;;;5057426;28;20318;-82
2022/12/25 15:36:44;;;;;;;26.97;19.03;;;;;;;;;;5075162;28;20326;-83
2022/12/25 15:39:10;;;;;;;33.97;19.23;;;;;;;;;;5057323;28;20344;-83
2022/12/25 15:44:23;;;;;;;34.40;26.07;;;;;;;;;;5056911;28;20771;-84
2022/12/25 15:46:49;;;;;;;43.33;23.30;;;;;;;;;;5057627;28;20366;-85
2022/12/25 15:49:16;;;;;;;38.90;21.00;;;;;;;;;;5036499;28;20296;-83
2022/12/25 15:51:43;;;;;;;31.13;19.07;;;;;;;;;;5054691;28;20284;-82
2022/12/25 15:54:09;;;;;;;39.27;20.87;;;;;;;;;;5053695;28;20341;-84
2022/12/25 15:56:41;;;;;;;45.67;24.70;;;;;;;;;;5053126;28;20339;-86
2022/12/25 15:59:09;;;;;;;35.17;23.97;;;;;;;;;;5053376;28;20298;-86
2022/12/25 16:01:35;;;;;;;59.20;26.33;;;;;;;;;;5053369;28;20554;-86
2022/12/25 16:04:01;;;;;;;53.47;25.07;;;;;;;;;;5053065;28;20318;-85
2022/12/25 16:06:27;;;;;;;37.33;21.07;;;;;;;;;;5053191;28;20295;-84
2022/12/25 16:08:53;;;;;;;62.53;26.50;;;;;;;;;;5053172;28;20639;-86
2022/12/25 16:11:19;;;;;;;55.53;27.27;;;;;;;;;;5053136;28;20362;-87
2022/12/25 16:13:46;;;;;;;51.33;26.30;;;;;;;;;;5037354;28;20314;-85